Time;durP1;ratioP1;P1;durP2;ratioP2;P2;SDS_P1;SDS_P2;PMS_P1;PMS_P2;Temp;Humidity;BMP_temperature;BMP_pressure;BME280_temperature;BME280_humidity;BME280_pressure;Samples;Min_cycle;Max_cycle;Signal;HPM_P1;HPM_P2
2024/03/29 05:30:19;;;;;;;0.10;0.10;;;7.80;88.80;;;;;;6044413;22;20020;-83
2024/03/29 05:32:44;;;;;;;0.10;0.10;;;7.80;88.70;;;;;;5023921;28;20033;-84
2024/03/29 05:35:10;;;;;;;0.10;0.10;;;7.80;88.70;;;;;;5019025;28;20096;-84
2024/03/29 05:37:37;;;;;;;0.10;0.10;;;7.80;88.70;;;;;;5051832;28;20025;-84
2024/03/29 05:40:05;;;;;;;0.10;0.10;;;7.80;88.90;;;;;;5055963;28;20084;-83
2024/03/29 05:42:35;;;;;;;0.10;0.10;;;7.80;89.00;;;;;;5038801;28;20025;-84
2024/03/29 05:45:01;;;;;;;0.13;0.13;;;7.80;89.10;;;;;;5055945;28;20037;-83
2024/03/29 05:47:27;;;;;;;0.10;0.10;;;7.80;89.40;;;;;;5053568;28;20047;-84
2024/03/29 05:49:53;;;;;;;0.10;0.10;;;7.80;89.40;;;;;;5053534;28;20067;-82
2024/03/29 05:52:20;;;;;;;0.10;0.10;;;7.90;89.50;;;;;;5054716;28;20036;-86
2024/03/29 05:54:46;;;;;;;0.10;0.10;;;7.90;89.30;;;;;;5038402;28;20028;-84
2024/03/29 05:57:12;;;;;;;0.10;0.10;;;8.00;89.40;;;;;;5038282;28;20108;-85
2024/03/29 05:59:38;;;;;;;0.10;0.10;;;8.00;89.20;;;;;;5055685;28;20065;-90
2024/03/29 06:02:05;;;;;;;0.10;0.10;;;8.00;89.20;;;;;;5038320;28;20102;-88
2024/03/29 06:04:33;;;;;;;0.10;0.10;;;8.00;89.40;;;;;;5021184;28;20041;-86
2024/03/29 06:07:00;;;;;;;0.10;0.10;;;8.00;89.20;;;;;;5031192;28;20528;-82
2024/03/29 06:09:25;;;;;;;0.10;0.10;;;8.10;89.30;;;;;;5055949;28;20029;-86
2024/03/29 06:11:53;;;;;;;0.10;0.10;;;8.20;89.30;;;;;;5037992;28;20059;-85
2024/03/29 06:19:48;;;;;;;0.10;0.10;;;8.30;89.30;;;;;;5054609;28;20043;-79
2024/03/29 06:22:30;;;;;;;0.10;0.10;;;8.30;89.20;;;;;;5050627;28;20105;-82
2024/03/29 06:24:59;;;;;;;0.10;0.10;;;8.40;89.20;;;;;;5028034;28;20036;-79
2024/03/29 06:27:25;;;;;;;0.10;0.10;;;8.40;89.20;;;;;;5047210;28;20117;-81
2024/03/29 06:29:51;;;;;;;0.10;0.10;;;8.40;89.20;;;;;;5039254;28;20025;-82
2024/03/29 06:32:18;;;;;;;0.17;0.17;;;8.50;88.90;;;;;;5077259;28;20065;-82
2024/03/29 06:34:47;;;;;;;0.10;0.10;;;8.60;88.80;;;;;;5062062;28;20032;-82
2024/03/29 06:37:14;;;;;;;0.10;0.10;;;8.70;88.70;;;;;;5079280;28;20048;-83
2024/03/29 06:39:41;;;;;;;0.10;0.10;;;8.80;88.60;;;;;;5079211;28;20126;-83
2024/03/29 06:42:07;;;;;;;0.10;0.10;;;8.80;88.30;;;;;;5079493;28;20017;-84
2024/03/29 06:44:33;;;;;;;0.10;0.10;;;8.80;88.30;;;;;;5058113;28;20043;-82
2024/03/29 06:46:59;;;;;;;0.10;0.10;;;8.80;88.30;;;;;;5050169;28;20488;-85
2024/03/29 06:49:24;;;;;;;0.10;0.10;;;8.80;88.20;;;;;;5064659;28;20411;-84
2024/03/29 06:51:50;;;;;;;0.10;0.10;;;8.90;88.30;;;;;;5066269;28;20420;-84
2024/03/29 06:54:16;;;;;;;0.10;0.10;;;9.10;88.00;;;;;;5077552;28;20088;-85
2024/03/29 06:56:41;;;;;;;0.10;0.10;;;9.20;87.90;;;;;;5061576;28;20047;-83
2024/03/29 06:59:08;;;;;;;0.10;0.10;;;9.20;87.80;;;;;;5078912;28;20395;-86
2024/03/29 07:01:33;;;;;;;0.20;0.20;;;9.40;87.60;;;;;;5060293;28;20446;-84
2024/03/29 07:03:59;;;;;;;0.10;0.10;;;9.70;87.20;;;;;;5076258;28;20024;-85
2024/03/29 07:06:25;;;;;;;0.10;0.10;;;10.10;86.10;;;;;;5057380;28;20051;-85
2024/03/29 07:08:50;;;;;;;0.10;0.10;;;10.20;85.50;;;;;;5040882;28;20033;-85
2024/03/29 07:11:16;;;;;;;0.10;0.10;;;10.00;86.10;;;;;;5058293;28;20086;-87
2024/03/29 07:13:42;;;;;;;0.10;0.10;;;9.70;86.60;;;;;;5057333;28;20029;-84
2024/03/29 07:16:07;;;;;;;0.10;0.10;;;9.60;87.60;;;;;;5045500;28;20033;-83
2024/03/29 07:18:33;;;;;;;0.10;0.10;;;9.30;87.10;;;;;;5040033;28;20396;-82
2024/03/29 07:20:58;;;;;;;0.10;0.10;;;9.20;87.20;;;;;;5043550;28;20108;-83
2024/03/29 07:23:24;;;;;;;0.10;0.10;;;9.10;86.90;;;;;;5053129;28;20086;-83
2024/03/29 07:26:04;;;;;;;0.10;0.10;;;9.20;86.90;;;;;;5058334;28;20025;-84
2024/03/29 07:28:30;;;;;;;0.10;0.10;;;9.30;86.20;;;;;;5058279;28;20412;-86
2024/03/29 07:30:56;;;;;;;0.10;0.10;;;9.40;86.00;;;;;;5046614;28;20439;-85
2024/03/29 07:33:26;;;;;;;0.10;0.10;;;9.40;86.20;;;;;;5058562;28;20059;-87
2024/03/29 07:35:55;;;;;;;0.10;0.10;;;9.60;86.70;;;;;;5040590;28;20108;-84
2024/03/29 07:38:27;;;;;;;0.10;0.10;;;9.60;86.50;;;;;;5057627;28;20554;-87
2024/03/29 07:40:54;;;;;;;0.10;0.10;;;9.60;86.70;;;;;;5029725;28;20028;-86
2024/03/29 07:43:24;;;;;;;0.10;0.10;;;9.60;85.80;;;;;;5019887;28;20033;-86
2024/03/29 07:45:50;;;;;;;0.10;0.10;;;9.60;86.00;;;;;;5043965;28;20031;-85
2024/03/29 07:48:18;;;;;;;0.10;0.10;;;9.60;85.60;;;;;;5053783;28;20551;-86
2024/03/29 07:50:45;;;;;;;0.10;0.10;;;9.60;86.00;;;;;;5038195;28;20124;-83
2024/03/29 07:53:11;;;;;;;0.10;0.10;;;9.50;85.90;;;;;;5037138;28;20435;-86
2024/03/29 07:55:38;;;;;;;0.10;0.10;;;9.50;85.50;;;;;;5050663;28;20052;-85
2024/03/29 07:58:05;;;;;;;0.10;0.10;;;9.70;85.30;;;;;;5040390;28;20032;-86
2024/03/29 08:00:34;;;;;;;0.17;0.17;;;10.30;84.20;;;;;;5040216;28;20484;-82
2024/03/29 08:03:01;;;;;;;0.10;0.10;;;10.50;83.40;;;;;;5051977;28;20034;-83
2024/03/29 08:05:27;;;;;;;0.20;0.20;;;10.30;82.50;;;;;;5037254;28;20029;-85
2024/03/29 08:07:54;;;;;;;0.20;0.20;;;10.60;82.60;;;;;;5019480;28;20025;-87
2024/03/29 08:10:20;;;;;;;0.20;0.20;;;10.80;82.00;;;;;;5042262;28;20047;-90
2024/03/29 08:12:46;;;;;;;0.20;0.20;;;10.80;81.40;;;;;;5057750;28;20080;-91
2024/03/29 08:15:11;;;;;;;0.20;0.20;;;11.10;80.70;;;;;;5039598;28;20028;-84
2024/03/29 08:17:37;;;;;;;0.20;0.20;;;11.50;80.50;;;;;;5039796;28;20018;-86
2024/03/29 08:20:04;;;;;;;0.10;0.10;;;12.00;79.90;;;;;;5045854;28;20026;-86
2024/03/29 08:22:33;;;;;;;0.10;0.10;;;11.60;79.20;;;;;;5038601;28;20040;-87
2024/03/29 08:24:59;;;;;;;0.20;0.20;;;11.50;79.70;;;;;;5020134;28;20481;-86
2024/03/29 08:27:26;;;;;;;0.20;0.20;;;12.00;78.70;;;;;;5035726;28;20040;-85
2024/03/29 08:29:51;;;;;;;0.30;0.30;;;12.50;77.90;;;;;;5029056;28;20033;-84
2024/03/29 08:32:17;;;;;;;0.30;0.30;;;13.00;77.00;;;;;;5032851;28;20095;-85
2024/03/29 08:34:43;;;;;;;0.20;0.20;;;13.30;75.60;;;;;;5018739;28;20515;-86
2024/03/29 08:37:08;;;;;;;0.20;0.20;;;13.80;74.20;;;;;;5036131;28;20492;-87
2024/03/29 08:39:37;;;;;;;0.10;0.10;;;14.00;73.90;;;;;;5036372;28;20608;-85
2024/03/29 08:42:05;;;;;;;0.20;0.20;;;13.70;73.20;;;;;;5032644;28;20422;-86
2024/03/29 08:44:32;;;;;;;0.10;0.10;;;13.90;74.00;;;;;;5021430;28;20017;-85
2024/03/29 08:46:59;;;;;;;0.10;0.10;;;13.30;73.30;;;;;;5054945;28;20516;-87
2024/03/29 08:49:24;;;;;;;0.10;0.10;;;12.80;74.50;;;;;;5019868;28;20045;-86
2024/03/29 08:51:50;;;;;;;0.20;0.20;;;12.60;75.80;;;;;;5030407;28;20048;-84
2024/03/29 08:54:16;;;;;;;0.20;0.20;;;12.50;76.00;;;;;;5030516;28;20025;-85
2024/03/29 08:56:41;;;;;;;0.10;0.10;;;12.80;75.00;;;;;;5045043;28;20506;-84
2024/03/29 08:59:09;;;;;;;0.10;0.10;;;12.60;75.60;;;;;;5049958;28;20025;-85
2024/03/29 09:01:37;;;;;;;0.20;0.20;;;12.50;76.20;;;;;;5049086;28;20493;-86
2024/03/29 09:04:06;;;;;;;0.20;0.20;;;12.70;76.40;;;;;;5048251;28;20059;-84
2024/03/29 09:06:33;;;;;;;0.10;0.10;;;12.80;75.90;;;;;;5036165;28;20017;-85
2024/03/29 09:08:59;;;;;;;0.30;0.30;;;12.80;75.70;;;;;;5022218;28;20041;-85
2024/03/29 09:11:24;;;;;;;0.20;0.20;;;13.00;74.60;;;;;;5035828;28;20033;-85
2024/03/29 09:13:50;;;;;;;14.07;13.57;;;13.40;73.00;;;;;;5041836;28;20020;-84
2024/03/29 09:16:16;;;;;;;9.18;8.77;;;13.80;72.30;;;;;;5039948;28;20039;-85
2024/03/29 09:18:42;;;;;;;0.30;0.30;;;15.00;70.10;;;;;;5046529;28;20131;-85
2024/03/29 09:21:09;;;;;;;3.55;3.40;;;15.70;66.90;;;;;;5043742;28;20088;-88
2024/03/29 09:23:34;;;;;;;0.77;0.77;;;16.30;64.40;;;;;;5029535;28;20430;-85
2024/03/29 09:26:04;;;;;;;0.43;0.43;;;16.80;62.60;;;;;;5043832;28;20028;-85
2024/03/29 09:28:31;;;;;;;0.30;0.30;;;16.20;61.60;;;;;;5034635;28;20370;-74
2024/03/29 09:31:00;;;;;;;0.20;0.20;;;16.30;62.10;;;;;;5047055;28;20063;-74
2024/03/29 09:33:26;;;;;;;0.50;0.50;;;16.20;62.00;;;;;;5042412;28;20020;-74
2024/03/29 09:35:53;;;;;;;0.10;0.10;;;16.30;61.60;;;;;;5054837;28;20569;-74
2024/03/29 09:38:19;;;;;;;0.60;0.60;;;15.70;63.10;;;;;;5066543;28;20028;-74
2024/03/29 09:40:45;;;;;;;0.50;0.50;;;16.20;63.60;;;;;;5048131;28;20036;-74
2024/03/29 09:43:14;;;;;;;0.80;0.80;;;16.30;62.30;;;;;;5061243;28;20353;-73
2024/03/29 09:45:40;;;;;;;0.70;0.70;;;16.90;60.30;;;;;;5055096;28;20387;-74
2024/03/29 09:48:08;;;;;;;0.90;0.90;;;17.40;58.10;;;;;;5057823;28;20113;-74
2024/03/29 09:50:37;;;;;;;1.10;1.10;;;18.40;57.50;;;;;;5056669;28;20396;-74
2024/03/29 09:53:08;;;;;;;0.70;0.70;;;18.80;53.90;;;;;;5059703;28;20086;-74
2024/03/29 09:55:35;;;;;;;0.75;0.75;;;19.30;53.70;;;;;;5058863;28;20017;-74
2024/03/29 09:58:02;;;;;;;0.70;0.70;;;19.10;52.90;;;;;;5061076;28;20066;-75
2024/03/29 10:00:28;;;;;;;0.50;0.50;;;19.10;54.90;;;;;;5063883;28;20025;-74
2024/03/29 10:02:59;;;;;;;0.50;0.50;;;18.90;54.10;;;;;;5060012;28;20025;-74
2024/03/29 10:05:27;;;;;;;0.50;0.50;;;18.40;53.70;;;;;;5054840;28;20047;-74
2024/03/29 10:07:54;;;;;;;0.30;0.30;;;18.20;55.50;;;;;;5059973;28;20052;-74
2024/03/29 10:10:19;;;;;;;0.10;0.10;;;17.30;55.40;;;;;;5059638;28;20017;-74
2024/03/29 10:12:45;;;;;;;0.10;0.10;;;17.10;56.50;;;;;;5062272;28;20051;-74
2024/03/29 10:15:14;;;;;;;0.10;0.10;;;16.80;58.70;;;;;;5059444;28;20040;-74
2024/03/29 10:17:50;;;;;;;0.00;0.00;;;16.30;58.80;;;;;;5056954;28;20431;-74
2024/03/29 10:20:17;;;;;;;0.00;0.00;;;16.20;59.60;;;;;;5063250;28;20016;-74
2024/03/29 10:22:44;;;;;;;0.00;0.00;;;15.80;62.00;;;;;;5064369;28;20025;-74
2024/03/29 10:25:11;;;;;;;0.00;0.00;;;15.00;65.70;;;;;;5058969;28;20056;-74
2024/03/29 10:27:37;;;;;;;0.10;0.10;;;14.50;69.10;;;;;;5061189;28;20418;-74
2024/03/29 10:30:03;;;;;;;0.10;0.10;;;14.20;68.70;;;;;;5061799;28;20046;-74
2024/03/29 10:32:29;;;;;;;0.10;0.10;;;14.00;69.60;;;;;;5037847;28;20045;-74
2024/03/29 10:34:56;;;;;;;0.10;0.10;;;13.90;68.50;;;;;;5064613;28;20032;-73
2024/03/29 10:37:29;;;;;;;0.10;0.10;;;13.80;68.20;;;;;;5060576;28;20438;-73
2024/03/29 10:39:56;;;;;;;0.10;0.10;;;13.90;68.30;;;;;;5042884;28;20029;-74
2024/03/29 10:42:25;;;;;;;0.10;0.10;;;14.10;69.00;;;;;;5056939;28;20047;-74
2024/03/29 10:44:51;;;;;;;0.10;0.10;;;14.10;68.10;;;;;;5060541;28;20098;-74
2024/03/29 10:47:20;;;;;;;0.10;0.10;;;14.20;68.20;;;;;;5061321;28;20025;-74
2024/03/29 10:49:51;;;;;;;0.10;0.10;;;14.30;67.10;;;;;;5063623;28;20501;-74
2024/03/29 10:52:25;;;;;;;0.10;0.10;;;14.50;67.00;;;;;;5057074;28;20063;-74
2024/03/29 10:54:52;;;;;;;0.10;0.10;;;14.20;66.70;;;;;;5048045;28;20025;-73
2024/03/29 10:57:25;;;;;;;0.10;0.10;;;14.00;66.00;;;;;;5051063;28;20041;-73
2024/03/29 11:00:08;;;;;;;0.10;0.10;;;13.80;65.80;;;;;;5062716;28;20021;-73
2024/03/29 11:02:46;;;;;;;0.10;0.10;;;13.70;65.90;;;;;;5059842;28;20142;-73
2024/03/29 11:05:14;;;;;;;0.10;0.10;;;13.80;65.90;;;;;;5064437;28;20096;-73
2024/03/29 11:07:42;;;;;;;0.10;0.10;;;13.90;66.10;;;;;;5043755;28;20025;-73
2024/03/29 11:10:22;;;;;;;0.10;0.10;;;14.00;67.20;;;;;;5062037;28;20028;-74
2024/03/29 11:13:01;;;;;;;0.10;0.10;;;13.90;66.50;;;;;;5046155;28;20017;-74
2024/03/29 11:15:29;;;;;;;0.10;0.10;;;14.00;65.00;;;;;;5055821;28;20021;-73
2024/03/29 11:17:56;;;;;;;0.10;0.10;;;14.10;66.90;;;;;;5052368;28;20088;-73
2024/03/29 11:20:37;;;;;;;0.10;0.10;;;14.30;66.00;;;;;;5061986;28;20411;-73
2024/03/29 11:23:10;;;;;;;0.10;0.10;;;14.20;65.10;;;;;;5056406;28;20392;-73
2024/03/29 11:25:39;;;;;;;0.10;0.10;;;14.20;63.90;;;;;;5039743;28;20029;-73
2024/03/29 11:28:08;;;;;;;0.10;0.10;;;14.30;62.30;;;;;;5047278;28;20083;-72
2024/03/29 11:30:40;;;;;;;0.10;0.10;;;14.30;62.70;;;;;;5061407;28;20365;-73
2024/03/29 11:33:06;;;;;;;0.10;0.10;;;14.60;63.50;;;;;;5056502;28;20033;-74
2024/03/29 11:35:33;;;;;;;0.10;0.10;;;14.60;62.90;;;;;;5066983;28;20096;-75
2024/03/29 11:38:01;;;;;;;0.10;0.10;;;14.40;62.60;;;;;;5057460;28;20060;-73
2024/03/29 11:40:30;;;;;;;0.10;0.10;;;14.50;62.40;;;;;;5041242;28;20362;-74
2024/03/29 11:42:56;;;;;;;0.10;0.10;;;14.70;62.50;;;;;;5038092;28;20040;-74
2024/03/29 11:45:30;;;;;;;0.10;0.10;;;14.60;62.10;;;;;;5057946;28;20029;-73
2024/03/29 11:48:00;;;;;;;0.10;0.10;;;14.80;61.50;;;;;;5054618;28;20029;-73
2024/03/29 11:50:26;;;;;;;0.10;0.10;;;15.00;61.40;;;;;;5057160;28;20024;-74
2024/03/29 11:52:51;;;;;;;0.10;0.10;;;15.20;62.10;;;;;;5056550;28;20543;-73
2024/03/29 11:55:18;;;;;;;0.10;0.10;;;15.30;61.90;;;;;;5059157;28;20069;-74
2024/03/29 11:57:43;;;;;;;0.10;0.10;;;15.30;62.40;;;;;;5052678;28;20025;-72
2024/03/29 12:00:09;;;;;;;0.10;0.10;;;15.20;60.00;;;;;;5056678;28;20025;-75
2024/03/29 12:02:35;;;;;;;0.10;0.10;;;15.10;60.60;;;;;;5057339;28;20380;-73
2024/03/29 12:05:08;;;;;;;0.10;0.10;;;15.10;60.70;;;;;;5062276;28;20021;-73
2024/03/29 12:07:33;;;;;;;0.10;0.10;;;15.30;59.60;;;;;;5059031;28;20131;-73
2024/03/29 12:09:59;;;;;;;0.10;0.10;;;15.50;60.60;;;;;;5049992;23;20494;-74
2024/03/29 12:12:25;;;;;;;0.10;0.10;;;15.60;60.20;;;;;;5044341;28;20022;-74
2024/03/29 12:14:53;;;;;;;0.03;0.03;;;15.70;59.70;;;;;;5021573;28;20048;-74
2024/03/29 12:17:19;;;;;;;0.10;0.10;;;15.60;59.40;;;;;;5031454;28;20152;-74
2024/03/29 12:19:47;;;;;;;0.10;0.10;;;15.20;59.00;;;;;;5042098;28;20040;-74
2024/03/29 12:22:13;;;;;;;0.10;0.10;;;15.20;60.20;;;;;;5042616;28;20021;-74
2024/03/29 12:24:39;;;;;;;0.10;0.10;;;15.40;59.90;;;;;;5042159;28;20110;-74
2024/03/29 12:27:05;;;;;;;0.10;0.10;;;15.30;59.20;;;;;;5026829;28;20040;-74
2024/03/29 12:29:31;;;;;;;0.10;0.10;;;15.30;59.20;;;;;;5045408;28;20043;-74
2024/03/29 12:32:04;;;;;;;0.10;0.10;;;15.30;58.70;;;;;;5042337;28;20033;-74
2024/03/29 12:34:33;;;;;;;0.10;0.10;;;15.00;59.50;;;;;;5049245;28;20104;-75
2024/03/29 12:36:59;;;;;;;0.10;0.10;;;14.90;59.50;;;;;;5045747;28;20021;-75
2024/03/29 12:39:26;;;;;;;0.10;0.10;;;14.80;59.70;;;;;;5025138;28;20023;-75
2024/03/29 12:41:56;;;;;;;0.10;0.10;;;14.90;61.40;;;;;;5047597;28;20029;-74
2024/03/29 12:44:22;;;;;;;0.10;0.10;;;14.80;60.80;;;;;;5046698;28;20037;-75
2024/03/29 12:46:48;;;;;;;0.10;0.10;;;14.80;61.80;;;;;;5030338;28;20040;-75
2024/03/29 12:49:14;;;;;;;0.10;0.10;;;14.80;61.50;;;;;;5043442;28;20024;-74
2024/03/29 12:51:40;;;;;;;0.10;0.10;;;15.10;59.50;;;;;;5045361;28;20029;-75
2024/03/29 12:54:06;;;;;;;0.10;0.10;;;15.30;59.30;;;;;;5027014;28;20037;-74
2024/03/29 12:56:32;;;;;;;0.10;0.10;;;15.20;59.90;;;;;;5042473;28;20024;-75
2024/03/29 12:58:57;;;;;;;0.10;0.10;;;15.20;59.10;;;;;;5052775;28;20447;-75
2024/03/29 13:01:23;;;;;;;0.10;0.10;;;15.30;59.60;;;;;;5049297;28;20060;-75
2024/03/29 13:03:49;;;;;;;0.10;0.10;;;15.30;61.00;;;;;;5044086;28;20039;-75
2024/03/29 13:06:14;;;;;;;0.10;0.10;;;15.50;59.60;;;;;;5054504;28;20020;-75
2024/03/29 13:08:40;;;;;;;0.10;0.10;;;15.40;60.30;;;;;;5049175;28;20045;-74
2024/03/29 13:11:06;;;;;;;0.10;0.10;;;15.50;60.60;;;;;;5018922;28;20029;-75
2024/03/29 13:13:31;;;;;;;0.10;0.10;;;15.40;59.60;;;;;;5036832;28;20040;-75
2024/03/29 13:15:57;;;;;;;0.10;0.10;;;15.40;59.60;;;;;;5048583;28;20095;-75
2024/03/29 13:18:22;;;;;;;0.10;0.10;;;15.30;60.30;;;;;;5053139;28;20779;-75
2024/03/29 13:20:48;;;;;;;0.10;0.10;;;15.50;59.90;;;;;;5037077;28;20041;-75
2024/03/29 13:23:14;;;;;;;0.10;0.10;;;15.80;59.20;;;;;;5018184;28;20037;-75
2024/03/29 13:25:40;;;;;;;0.10;0.10;;;15.60;58.50;;;;;;5034919;28;20030;-75
2024/03/29 13:28:07;;;;;;;0.20;0.20;;;15.70;58.40;;;;;;5046925;28;20064;-75
2024/03/29 13:30:33;;;;;;;0.10;0.10;;;15.90;58.50;;;;;;5037031;28;20021;-75
2024/03/29 13:32:58;;;;;;;0.10;0.10;;;16.10;57.90;;;;;;5044307;28;20082;-75
2024/03/29 13:35:24;;;;;;;0.10;0.10;;;16.20;57.70;;;;;;5049045;28;20036;-75
2024/03/29 13:37:53;;;;;;;0.10;0.10;;;16.20;57.30;;;;;;5031291;28;20033;-75
2024/03/29 13:40:20;;;;;;;0.10;0.10;;;16.20;57.00;;;;;;5051561;28;20024;-75
2024/03/29 13:42:46;;;;;;;0.10;0.10;;;16.30;57.10;;;;;;5055798;28;20079;-75
2024/03/29 13:45:12;;;;;;;0.10;0.10;;;16.30;57.30;;;;;;5048200;28;20028;-75
2024/03/29 13:47:42;;;;;;;0.10;0.10;;;16.20;58.20;;;;;;5054822;28;20033;-75
2024/03/29 13:50:09;;;;;;;0.10;0.10;;;16.20;57.00;;;;;;5032173;28;20129;-75
2024/03/29 13:52:35;;;;;;;0.10;0.10;;;16.30;56.60;;;;;;5041965;28;20026;-75
2024/03/29 13:55:03;;;;;;;0.10;0.10;;;16.30;56.70;;;;;;5029670;28;20116;-75
2024/03/29 13:57:29;;;;;;;0.10;0.10;;;16.30;56.40;;;;;;5035851;28;20045;-75
2024/03/29 13:59:54;;;;;;;0.10;0.10;;;16.20;54.90;;;;;;5046530;28;20036;-75
2024/03/29 14:02:20;;;;;;;0.10;0.10;;;16.30;57.00;;;;;;5036821;28;20081;-75
2024/03/29 14:04:47;;;;;;;0.10;0.10;;;16.30;56.00;;;;;;5055185;28;20021;-75
2024/03/29 14:07:14;;;;;;;0.10;0.10;;;16.10;54.90;;;;;;5054073;28;20051;-75
2024/03/29 14:09:44;;;;;;;0.10;0.10;;;16.20;56.10;;;;;;5053103;28;20045;-75
2024/03/29 14:12:10;;;;;;;0.10;0.10;;;16.00;54.80;;;;;;5035407;28;20040;-75
2024/03/29 14:14:36;;;;;;;0.10;0.10;;;16.00;55.00;;;;;;5054437;28;20031;-75
2024/03/29 14:17:06;;;;;;;0.10;0.10;;;15.90;55.20;;;;;;5035588;28;20021;-75
2024/03/29 14:19:41;;;;;;;0.10;0.10;;;16.00;55.50;;;;;;5025245;28;20548;-75
2024/03/29 14:22:07;;;;;;;0.10;0.10;;;15.90;55.20;;;;;;5043399;28;20025;-75
2024/03/29 14:24:37;;;;;;;0.10;0.10;;;16.00;55.60;;;;;;5054616;28;20021;-75
2024/03/29 14:27:03;;;;;;;0.10;0.10;;;15.90;54.80;;;;;;5035671;28;20449;-75
2024/03/29 14:29:33;;;;;;;0.10;0.10;;;16.00;55.50;;;;;;5037998;28;20079;-75
2024/03/29 14:31:58;;;;;;;0.10;0.10;;;16.00;55.70;;;;;;5022029;28;20557;-75
2024/03/29 14:34:24;;;;;;;0.10;0.10;;;15.80;55.20;;;;;;5038477;28;20032;-75
2024/03/29 14:36:51;;;;;;;0.10;0.10;;;15.70;54.90;;;;;;5048907;28;20100;-75
2024/03/29 14:39:18;;;;;;;0.10;0.10;;;15.70;55.10;;;;;;5036571;28;20037;-75
2024/03/29 14:41:46;;;;;;;0.10;0.10;;;15.70;54.80;;;;;;5049402;28;20112;-76
2024/03/29 14:44:12;;;;;;;0.10;0.10;;;15.80;55.20;;;;;;5031306;28;20509;-75
2024/03/29 14:46:38;;;;;;;0.10;0.10;;;15.90;55.30;;;;;;5035847;28;20048;-75
2024/03/29 14:49:10;;;;;;;0.10;0.10;;;15.90;55.20;;;;;;5046407;28;20026;-75
2024/03/29 14:51:36;;;;;;;0.13;0.13;;;15.80;55.60;;;;;;5046589;28;20025;-75
2024/03/29 14:54:03;;;;;;;0.10;0.10;;;15.80;56.30;;;;;;5042011;28;20022;-75
2024/03/29 14:56:33;;;;;;;0.10;0.10;;;15.80;55.80;;;;;;5039295;28;20075;-76
2024/03/29 14:59:05;;;;;;;0.10;0.10;;;15.90;55.60;;;;;;5049447;28;20040;-75
2024/03/29 15:01:31;;;;;;;0.10;0.10;;;15.80;55.80;;;;;;5039340;28;20025;-75
2024/03/29 15:03:57;;;;;;;0.10;0.10;;;15.70;56.10;;;;;;5046904;28;20041;-75
2024/03/29 15:06:23;;;;;;;0.10;0.10;;;15.70;56.50;;;;;;5047862;28;20013;-75
2024/03/29 15:08:50;;;;;;;0.10;0.10;;;15.70;56.90;;;;;;5030102;28;20155;-75
2024/03/29 15:11:16;;;;;;;0.10;0.10;;;15.60;57.30;;;;;;5013523;28;20027;-75
2024/03/29 15:13:41;;;;;;;0.10;0.10;;;15.60;57.10;;;;;;5007286;28;20026;-74
2024/03/29 15:16:07;;;;;;;0.10;0.10;;;15.40;57.20;;;;;;5007226;28;20088;-74
2024/03/29 15:18:33;;;;;;;0.10;0.10;;;15.30;58.20;;;;;;5026836;28;20395;-74
2024/03/29 15:21:01;;;;;;;0.10;0.10;;;15.30;58.00;;;;;;5018585;28;20030;-78
2024/03/29 15:23:28;;;;;;;0.10;0.10;;;15.30;58.40;;;;;;5001018;28;20029;-76
2024/03/29 15:25:55;;;;;;;0.10;0.10;;;15.30;58.90;;;;;;5026162;28;20097;-77
2024/03/29 15:31:19;;;;;;;0.10;0.10;;;15.50;59.80;;;;;;5037839;28;20033;-77
2024/03/29 15:33:46;;;;;;;0.10;0.10;;;15.60;59.90;;;;;;5036696;28;20112;-82
2024/03/29 15:36:12;;;;;;;0.10;0.10;;;15.50;59.30;;;;;;5028380;28;20028;-80
2024/03/29 15:38:38;;;;;;;0.10;0.10;;;15.50;60.20;;;;;;5007645;28;20092;-84
2024/03/29 15:41:07;;;;;;;0.10;0.10;;;15.30;59.60;;;;;;5013090;28;20049;-77
2024/03/29 15:43:38;;;;;;;0.00;0.00;;;15.10;60.50;;;;;;5021117;28;20030;-76
2024/03/29 15:46:08;;;;;;;0.00;0.00;;;15.00;60.10;;;;;;5017338;28;20029;-78
2024/03/29 15:48:34;;;;;;;0.10;0.10;;;14.80;60.30;;;;;;5033057;28;20025;-77
2024/03/29 15:51:00;;;;;;;0.10;0.10;;;14.80;60.90;;;;;;5026857;28;20121;-79
2024/03/29 15:53:26;;;;;;;0.10;0.10;;;14.90;61.20;;;;;;5028825;28;20036;-79
2024/03/29 15:55:53;;;;;;;0.10;0.10;;;15.00;60.40;;;;;;5024554;28;20132;-83
2024/03/29 15:58:18;;;;;;;0.10;0.10;;;15.00;60.60;;;;;;5025055;28;20112;-80
2024/03/29 16:00:44;;;;;;;0.10;0.10;;;15.10;60.60;;;;;;5021041;28;20030;-79
2024/03/29 16:03:14;;;;;;;0.10;0.10;;;15.00;60.10;;;;;;5010279;28;20025;-80
2024/03/29 16:05:44;;;;;;;0.00;0.00;;;14.90;61.30;;;;;;5012814;28;20479;-80
2024/03/29 16:08:11;;;;;;;0.00;0.00;;;14.80;62.20;;;;;;5018483;28;20112;-79
2024/03/29 16:10:53;;;;;;;0.10;0.10;;;14.40;64.50;;;;;;5044331;28;20125;-80
2024/03/29 16:13:26;;;;;;;0.10;0.10;;;14.20;68.60;;;;;;5029230;28;20021;-80
2024/03/29 16:15:54;;;;;;;0.10;0.10;;;14.30;69.90;;;;;;5041531;28;20025;-80
2024/03/29 16:18:20;;;;;;;0.10;0.10;;;14.40;68.10;;;;;;5032722;28;20063;-79
2024/03/29 16:20:46;;;;;;;0.10;0.10;;;14.60;67.60;;;;;;5048042;28;20020;-80
2024/03/29 16:23:13;;;;;;;0.10;0.10;;;14.70;66.40;;;;;;5045931;28;20055;-79
2024/03/29 16:25:41;;;;;;;0.10;0.10;;;14.50;63.40;;;;;;5031030;28;20022;-80
2024/03/29 16:28:10;;;;;;;0.10;0.10;;;14.50;64.50;;;;;;5048369;28;20163;-80
2024/03/29 16:30:37;;;;;;;0.00;0.00;;;14.60;64.20;;;;;;5048764;28;20020;-80
2024/03/29 16:33:05;;;;;;;0.10;0.10;;;14.70;64.60;;;;;;5030289;28;20028;-81
2024/03/29 16:35:34;;;;;;;0.10;0.10;;;14.70;64.80;;;;;;5030969;28;20028;-81
2024/03/29 16:38:00;;;;;;;0.10;0.10;;;14.60;65.00;;;;;;5030705;28;20033;-82
2024/03/29 16:40:31;;;;;;;0.10;0.10;;;14.20;65.30;;;;;;5046865;28;20113;-83
2024/03/29 16:43:00;;;;;;;0.10;0.10;;;14.20;65.70;;;;;;5029918;28;20487;-90
2024/03/29 16:45:25;;;;;;;0.00;0.00;;;14.20;66.40;;;;;;5034692;28;20351;-81
2024/03/29 16:47:51;;;;;;;0.00;0.00;;;14.10;65.80;;;;;;5047331;28;20026;-80
2024/03/29 16:50:17;;;;;;;0.10;0.10;;;14.00;66.90;;;;;;5036451;28;20546;-82
2024/03/29 16:52:45;;;;;;;0.10;0.10;;;14.00;66.50;;;;;;5033719;28;20021;-80
2024/03/29 16:55:11;;;;;;;0.10;0.10;;;13.90;66.50;;;;;;5045504;28;20125;-77
2024/03/29 16:57:52;;;;;;;0.10;0.10;;;14.00;66.70;;;;;;5050648;28;20391;-80
2024/03/29 17:00:21;;;;;;;0.10;0.10;;;14.00;66.80;;;;;;5028732;28;20803;-85
2024/03/29 17:02:47;;;;;;;0.10;0.10;;;14.00;67.00;;;;;;5037638;28;20116;-81
2024/03/29 17:05:13;;;;;;;0.00;0.00;;;14.10;67.10;;;;;;5036695;28;20088;-83
2024/03/29 17:07:38;;;;;;;0.10;0.10;;;14.30;66.70;;;;;;5037404;28;20049;-87
2024/03/29 17:10:04;;;;;;;0.10;0.10;;;14.20;66.40;;;;;;5037866;28;20080;-78
2024/03/29 17:12:30;;;;;;;0.00;0.00;;;14.20;66.60;;;;;;5036662;28;20055;-86
2024/03/29 17:14:57;;;;;;;0.10;0.10;;;14.10;66.00;;;;;;5037109;28;20017;-79
2024/03/29 17:17:24;;;;;;;0.00;0.00;;;14.10;65.30;;;;;;5046026;28;20116;-78
2024/03/29 17:19:50;;;;;;;0.00;0.00;;;14.00;64.80;;;;;;5033937;28;20050;-78
2024/03/29 17:22:16;;;;;;;0.10;0.10;;;13.90;65.60;;;;;;5036196;28;20391;-78
2024/03/29 17:24:42;;;;;;;0.03;0.03;;;14.00;65.80;;;;;;5045144;28;20085;-81
2024/03/29 17:27:07;;;;;;;0.00;0.00;;;14.00;66.10;;;;;;5037153;28;20076;-78
2024/03/29 17:29:35;;;;;;;0.00;0.00;;;14.00;66.00;;;;;;5043277;28;20076;-78
2024/03/29 17:32:01;;;;;;;0.10;0.10;;;13.90;66.10;;;;;;5045199;28;20028;-77
2024/03/29 17:34:27;;;;;;;0.00;0.00;;;13.80;67.10;;;;;;5044899;28;20111;-79
2024/03/29 17:36:53;;;;;;;0.10;0.10;;;13.60;69.10;;;;;;5028596;28;20080;-77
2024/03/29 17:39:18;;;;;;;0.05;0.05;;;13.50;69.20;;;;;;5045501;28;20067;-83
2024/03/29 17:41:45;;;;;;;0.10;0.10;;;13.50;70.00;;;;;;5025565;28;20025;-80
2024/03/29 17:44:15;;;;;;;0.00;0.00;;;13.50;69.80;;;;;;5044441;28;20083;-79
2024/03/29 17:46:42;;;;;;;0.10;0.10;;;13.50;70.20;;;;;;5044699;28;20026;-78
2024/03/29 17:49:08;;;;;;;0.10;0.10;;;13.40;70.10;;;;;;5026259;28;20025;-76
2024/03/29 17:51:34;;;;;;;0.10;0.10;;;13.30;70.50;;;;;;5042799;28;20104;-81
2024/03/29 17:54:00;;;;;;;0.10;0.10;;;13.20;70.90;;;;;;5024363;28;20036;-81
2024/03/29 17:56:26;;;;;;;0.00;0.00;;;13.20;71.60;;;;;;5053369;28;20036;-81
2024/03/29 17:58:51;;;;;;;0.10;0.10;;;13.20;71.30;;;;;;5041534;28;20033;-80
2024/03/29 18:01:17;;;;;;;0.10;0.10;;;13.10;71.60;;;;;;5053899;28;20513;-77
2024/03/29 18:03:47;;;;;;;0.00;0.00;;;13.20;71.50;;;;;;5054292;28;20040;-82
2024/03/29 18:06:14;;;;;;;0.00;0.00;;;13.10;71.40;;;;;;5044800;28;20033;-80
2024/03/29 18:08:40;;;;;;;0.00;0.00;;;13.00;71.80;;;;;;5000740;28;1103699;-79
2024/03/29 18:11:10;;;;;;;0.03;0.03;;;13.00;71.90;;;;;;5018070;28;20026;-84
2024/03/29 18:13:39;;;;;;;0.10;0.10;;;12.90;72.00;;;;;;5017732;28;20029;-81
2024/03/29 18:16:05;;;;;;;0.10;0.10;;;12.90;72.10;;;;;;5017526;28;20025;-80
2024/03/29 18:18:32;;;;;;;0.00;0.00;;;12.80;72.10;;;;;;5034831;28;20031;-80
2024/03/29 18:20:58;;;;;;;0.00;0.00;;;12.80;71.50;;;;;;5025842;28;20081;-78
2024/03/29 18:23:23;;;;;;;0.00;0.00;;;12.80;71.10;;;;;;5017485;28;20026;-77
2024/03/29 18:25:49;;;;;;;0.10;0.10;;;12.70;70.70;;;;;;5037404;28;20021;-76